sensor_id;sensor_type;location;lat;lon;timestamp;pressure;altitude;pressure_sealevel;temperature;humidity
79577;BME280;69045;48.136;11.386;2023-08-06T00:01:34;94706.47;;;18.75;74.30
79577;BME280;69045;48.136;11.386;2023-08-06T00:04:03;94707.78;;;18.77;73.87
79577;BME280;69045;48.136;11.386;2023-08-06T00:06:31;94705.06;;;18.82;73.38
79577;BME280;69045;48.136;11.386;2023-08-06T00:08:59;94704.72;;;18.89;72.27
79577;BME280;69045;48.136;11.386;2023-08-06T00:11:29;94714.28;;;18.90;70.93
79577;BME280;69045;48.136;11.386;2023-08-06T00:13:57;94707.91;;;18.91;69.71
79577;BME280;69045;48.136;11.386;2023-08-06T00:16:25;94703.66;;;18.90;69.23
79577;BME280;69045;48.136;11.386;2023-08-06T00:18:54;94705.28;;;18.86;69.88
79577;BME280;69045;48.136;11.386;2023-08-06T00:21:22;94703.78;;;18.80;69.57
79577;BME280;69045;48.136;11.386;2023-08-06T00:23:50;94697.19;;;18.77;69.70
79577;BME280;69045;48.136;11.386;2023-08-06T00:26:19;94700.16;;;18.71;69.75
79577;BME280;69045;48.136;11.386;2023-08-06T00:28:48;94697.59;;;18.61;70.01
79577;BME280;69045;48.136;11.386;2023-08-06T00:31:17;94688.09;;;18.54;70.39
79577;BME280;69045;48.136;11.386;2023-08-06T00:33:45;94690.00;;;18.49;70.25
79577;BME280;69045;48.136;11.386;2023-08-06T00:36:13;94688.50;;;18.43;70.59
79577;BME280;69045;48.136;11.386;2023-08-06T00:38:41;94694.63;;;18.38;70.92
79577;BME280;69045;48.136;11.386;2023-08-06T00:41:10;94702.09;;;18.36;71.02
79577;BME280;69045;48.136;11.386;2023-08-06T00:43:38;94700.00;;;18.33;71.30
79577;BME280;69045;48.136;11.386;2023-08-06T00:46:07;94694.47;;;18.30;71.72
79577;BME280;69045;48.136;11.386;2023-08-06T00:48:35;94692.59;;;18.30;72.05
79577;BME280;69045;48.136;11.386;2023-08-06T00:51:04;94694.72;;;18.28;72.43
79577;BME280;69045;48.136;11.386;2023-08-06T00:53:32;94693.72;;;18.24;72.89
79577;BME280;69045;48.136;11.386;2023-08-06T00:56:01;94688.69;;;18.22;73.42
79577;BME280;69045;48.136;11.386;2023-08-06T00:58:30;94674.38;;;18.23;73.31
79577;BME280;69045;48.136;11.386;2023-08-06T01:00:58;94671.47;;;18.20;73.45
79577;BME280;69045;48.136;11.386;2023-08-06T01:03:28;94674.69;;;18.17;73.82
79577;BME280;69045;48.136;11.386;2023-08-06T01:05:56;94673.34;;;18.19;73.81
79577;BME280;69045;48.136;11.386;2023-08-06T01:08:32;94672.25;;;18.20;73.65
79577;BME280;69045;48.136;11.386;2023-08-06T01:11:26;94671.75;;;18.18;73.86
79577;BME280;69045;48.136;11.386;2023-08-06T01:14:02;94672.25;;;18.20;73.48
79577;BME280;69045;48.136;11.386;2023-08-06T01:16:33;94665.88;;;18.21;73.18
79577;BME280;69045;48.136;11.386;2023-08-06T01:19:04;94667.75;;;18.21;72.92
79577;BME280;69045;48.136;11.386;2023-08-06T01:21:34;94663.81;;;18.18;72.97
79577;BME280;69045;48.136;11.386;2023-08-06T01:24:02;94660.66;;;18.16;73.23
79577;BME280;69045;48.136;11.386;2023-08-06T01:30:33;94652.75;;;18.11;73.21
79577;BME280;69045;48.136;11.386;2023-08-06T01:33:05;94652.25;;;18.09;73.13
79577;BME280;69045;48.136;11.386;2023-08-06T01:35:37;94648.28;;;18.07;73.53
79577;BME280;69045;48.136;11.386;2023-08-06T01:38:07;94650.13;;;18.06;73.39
79577;BME280;69045;48.136;11.386;2023-08-06T01:40:35;94647.53;;;18.01;73.57
79577;BME280;69045;48.136;11.386;2023-08-06T01:43:03;94645.16;;;17.99;73.95
79577;BME280;69045;48.136;11.386;2023-08-06T01:45:31;94645.44;;;17.98;74.13
79577;BME280;69045;48.136;11.386;2023-08-06T01:47:59;94646.22;;;17.98;73.62
79577;BME280;69045;48.136;11.386;2023-08-06T01:50:28;94644.16;;;17.95;73.75
79577;BME280;69045;48.136;11.386;2023-08-06T01:52:56;94634.59;;;17.94;74.15
79577;BME280;69045;48.136;11.386;2023-08-06T01:55:29;94624.53;;;17.96;74.22
79577;BME280;69045;48.136;11.386;2023-08-06T01:57:58;94621.88;;;17.96;73.95
79577;BME280;69045;48.136;11.386;2023-08-06T02:00:26;94626.38;;;17.96;73.63
79577;BME280;69045;48.136;11.386;2023-08-06T02:02:54;94623.75;;;17.96;73.19
79577;BME280;69045;48.136;11.386;2023-08-06T02:05:22;94630.09;;;17.95;72.95
79577;BME280;69045;48.136;11.386;2023-08-06T02:07:50;94627.50;;;17.90;72.80
79577;BME280;69045;48.136;11.386;2023-08-06T02:10:19;94623.28;;;17.89;73.12
79577;BME280;69045;48.136;11.386;2023-08-06T02:12:48;94619.84;;;17.88;73.23
79577;BME280;69045;48.136;11.386;2023-08-06T02:15:16;94611.88;;;17.88;72.94
79577;BME280;69045;48.136;11.386;2023-08-06T02:17:44;94601.28;;;17.88;72.79
79577;BME280;69045;48.136;11.386;2023-08-06T02:20:12;94605.56;;;17.84;72.74
79577;BME280;69045;48.136;11.386;2023-08-06T02:22:41;94610.34;;;17.82;73.04
79577;BME280;69045;48.136;11.386;2023-08-06T02:25:09;94607.47;;;17.79;72.97
79577;BME280;69045;48.136;11.386;2023-08-06T02:27:37;94597.94;;;17.78;73.01
79577;BME280;69045;48.136;11.386;2023-08-06T02:30:08;94597.94;;;17.78;73.10
79577;BME280;69045;48.136;11.386;2023-08-06T02:32:38;94588.38;;;17.82;73.17
79577;BME280;69045;48.136;11.386;2023-08-06T02:35:07;94594.16;;;17.84;72.97
79577;BME280;69045;48.136;11.386;2023-08-06T02:37:35;94586.72;;;17.86;73.05
79577;BME280;69045;48.136;11.386;2023-08-06T02:40:04;94566.66;;;17.80;72.86
79577;BME280;69045;48.136;11.386;2023-08-06T02:42:32;94560.06;;;17.77;73.12
79577;BME280;69045;48.136;11.386;2023-08-06T02:45:01;94559.25;;;17.77;73.09
79577;BME280;69045;48.136;11.386;2023-08-06T02:47:31;94571.97;;;17.74;73.13
79577;BME280;69045;48.136;11.386;2023-08-06T02:49:59;94569.34;;;17.74;73.38
79577;BME280;69045;48.136;11.386;2023-08-06T02:52:28;94563.25;;;17.74;73.22
79577;BME280;69045;48.136;11.386;2023-08-06T02:54:57;94562.75;;;17.72;73.18
79577;BME280;69045;48.136;11.386;2023-08-06T02:57:29;94561.44;;;17.69;73.03
79577;BME280;69045;48.136;11.386;2023-08-06T02:59:57;94557.47;;;17.67;73.45
79577;BME280;69045;48.136;11.386;2023-08-06T03:02:26;94562.50;;;17.68;73.10
79577;BME280;69045;48.136;11.386;2023-08-06T03:05:04;94570.44;;;17.68;73.08
79577;BME280;69045;48.136;11.386;2023-08-06T03:07:36;94587.13;;;17.69;72.57
79577;BME280;69045;48.136;11.386;2023-08-06T03:10:14;94576.78;;;17.72;73.08
79577;BME280;69045;48.136;11.386;2023-08-06T03:12:43;94580.69;;;17.80;72.72
79577;BME280;69045;48.136;11.386;2023-08-06T03:15:11;94577.97;;;17.85;72.37
79577;BME280;69045;48.136;11.386;2023-08-06T03:17:42;94580.63;;;17.85;72.21
79577;BME280;69045;48.136;11.386;2023-08-06T03:20:13;94576.41;;;17.84;72.16
79577;BME280;69045;48.136;11.386;2023-08-06T03:22:41;94573.75;;;17.84;72.00
79577;BME280;69045;48.136;11.386;2023-08-06T03:25:10;94571.63;;;17.86;71.74
79577;BME280;69045;48.136;11.386;2023-08-06T03:27:39;94564.72;;;17.85;71.54
79577;BME280;69045;48.136;11.386;2023-08-06T03:30:08;94559.81;;;17.73;71.98
79577;BME280;69045;48.136;11.386;2023-08-06T03:32:38;94559.06;;;17.68;72.13
79577;BME280;69045;48.136;11.386;2023-08-06T03:35:07;94561.13;;;17.76;71.92
79577;BME280;69045;48.136;11.386;2023-08-06T03:37:36;94560.88;;;17.72;71.48
79577;BME280;69045;48.136;11.386;2023-08-06T03:40:07;94556.38;;;17.73;71.96
79577;BME280;69045;48.136;11.386;2023-08-06T03:42:35;94556.28;;;17.83;71.59
79577;BME280;69045;48.136;11.386;2023-08-06T03:45:04;94565.81;;;17.84;71.06
79577;BME280;69045;48.136;11.386;2023-08-06T03:47:33;94567.88;;;17.87;70.60
79577;BME280;69045;48.136;11.386;2023-08-06T03:50:01;94560.97;;;17.91;70.67
79577;BME280;69045;48.136;11.386;2023-08-06T03:52:29;94554.88;;;17.91;70.50
79577;BME280;69045;48.136;11.386;2023-08-06T03:54:59;94560.19;;;17.91;70.15
79577;BME280;69045;48.136;11.386;2023-08-06T03:57:27;94556.44;;;17.92;70.45
79577;BME280;69045;48.136;11.386;2023-08-06T03:59:55;94553.19;;;18.00;69.77
79577;BME280;69045;48.136;11.386;2023-08-06T04:02:26;94549.75;;;17.99;69.16
79577;BME280;69045;48.136;11.386;2023-08-06T04:04:54;94550.97;;;18.07;69.43
79577;BME280;69045;48.136;11.386;2023-08-06T04:07:23;94555.41;;;18.17;68.90
79577;BME280;69045;48.136;11.386;2023-08-06T04:09:53;94552.97;;;18.20;68.12
79577;BME280;69045;48.136;11.386;2023-08-06T04:12:22;94556.06;;;18.27;68.12
79577;BME280;69045;48.136;11.386;2023-08-06T04:14:51;94558.88;;;18.36;67.82
79577;BME280;69045;48.136;11.386;2023-08-06T04:17:21;94566.22;;;18.44;67.08
79577;BME280;69045;48.136;11.386;2023-08-06T04:19:51;94556.03;;;18.51;66.92
79577;BME280;69045;48.136;11.386;2023-08-06T04:22:20;94563.22;;;18.51;67.00
79577;BME280;69045;48.136;11.386;2023-08-06T04:24:48;94569.00;;;18.53;66.53
79577;BME280;69045;48.136;11.386;2023-08-06T04:27:17;94577.69;;;18.59;66.30
79577;BME280;69045;48.136;11.386;2023-08-06T04:29:47;94564.44;;;18.59;66.31
79577;BME280;69045;48.136;11.386;2023-08-06T04:32:16;94567.28;;;18.43;66.34
79577;BME280;69045;48.136;11.386;2023-08-06T04:34:49;94573.63;;;18.42;66.29
79577;BME280;69045;48.136;11.386;2023-08-06T04:37:18;94567.78;;;18.45;66.54
79577;BME280;69045;48.136;11.386;2023-08-06T04:39:45;94570.38;;;18.50;66.24
79577;BME280;69045;48.136;11.386;2023-08-06T04:42:14;94572.31;;;18.45;66.35
79577;BME280;69045;48.136;11.386;2023-08-06T04:44:42;94567.41;;;18.33;66.65
79577;BME280;69045;48.136;11.386;2023-08-06T04:47:12;94566.91;;;18.31;66.99
79577;BME280;69045;48.136;11.386;2023-08-06T04:49:41;94566.84;;;18.36;66.88
79577;BME280;69045;48.136;11.386;2023-08-06T04:52:09;94565.25;;;18.35;66.80
79577;BME280;69045;48.136;11.386;2023-08-06T04:54:37;94565.88;;;18.27;67.07
79577;BME280;69045;48.136;11.386;2023-08-06T04:57:05;94567.25;;;18.24;67.32
79577;BME280;69045;48.136;11.386;2023-08-06T04:59:34;94567.53;;;18.23;67.32
79577;BME280;69045;48.136;11.386;2023-08-06T05:02:02;94562.22;;;18.23;67.38
79577;BME280;69045;48.136;11.386;2023-08-06T05:04:31;94559.00;;;18.26;67.03
79577;BME280;69045;48.136;11.386;2023-08-06T05:06:59;94561.09;;;18.29;67.03
79577;BME280;69045;48.136;11.386;2023-08-06T05:09:28;94563.97;;;18.33;67.32
79577;BME280;69045;48.136;11.386;2023-08-06T05:11:56;94566.06;;;18.36;67.26
79577;BME280;69045;48.136;11.386;2023-08-06T05:14:24;94556.50;;;18.35;67.51
79577;BME280;69045;48.136;11.386;2023-08-06T05:16:52;94556.44;;;18.40;66.51
79577;BME280;69045;48.136;11.386;2023-08-06T05:19:20;94552.91;;;18.49;66.50
79577;BME280;69045;48.136;11.386;2023-08-06T05:21:49;94554.91;;;18.58;66.06
79577;BME280;69045;48.136;11.386;2023-08-06T05:24:17;94557.44;;;18.68;66.05
79577;BME280;69045;48.136;11.386;2023-08-06T05:26:48;94552.06;;;18.73;65.50
79577;BME280;69045;48.136;11.386;2023-08-06T05:29:16;94561.31;;;18.75;65.59
79577;BME280;69045;48.136;11.386;2023-08-06T05:31:44;94551.13;;;18.82;65.40
79577;BME280;69045;48.136;11.386;2023-08-06T05:34:12;94553.72;;;18.88;64.89
79577;BME280;69045;48.136;11.386;2023-08-06T05:36:40;94549.19;;;18.88;64.74
79577;BME280;69045;48.136;11.386;2023-08-06T05:39:10;94557.09;;;18.74;64.91
79577;BME280;69045;48.136;11.386;2023-08-06T05:41:38;94564.06;;;18.70;65.50
79577;BME280;69045;48.136;11.386;2023-08-06T05:44:06;94557.72;;;18.66;65.13
79577;BME280;69045;48.136;11.386;2023-08-06T05:46:34;94557.16;;;18.69;65.50
79577;BME280;69045;48.136;11.386;2023-08-06T05:49:02;94559.75;;;18.74;65.11
79577;BME280;69045;48.136;11.386;2023-08-06T05:51:30;94548.56;;;18.77;64.97
79577;BME280;69045;48.136;11.386;2023-08-06T05:53:58;94551.91;;;18.83;65.11
79577;BME280;69045;48.136;11.386;2023-08-06T05:56:28;94543.69;;;18.85;64.98
79577;BME280;69045;48.136;11.386;2023-08-06T05:58:56;94549.19;;;18.88;64.54
79577;BME280;69045;48.136;11.386;2023-08-06T06:01:24;94552.28;;;18.95;64.10
79577;BME280;69045;48.136;11.386;2023-08-06T06:03:52;94546.41;;;18.98;63.51
79577;BME280;69045;48.136;11.386;2023-08-06T06:06:20;94549.50;;;19.05;63.68
79577;BME280;69045;48.136;11.386;2023-08-06T06:08:49;94541.66;;;19.14;62.84
79577;BME280;69045;48.136;11.386;2023-08-06T06:11:17;94553.56;;;19.17;62.52
79577;BME280;69045;48.136;11.386;2023-08-06T06:13:51;94557.88;;;19.31;62.26
79577;BME280;69045;48.136;11.386;2023-08-06T06:16:19;94563.59;;;19.39;61.46
79577;BME280;69045;48.136;11.386;2023-08-06T06:18:47;94561.34;;;19.46;61.47
79577;BME280;69045;48.136;11.386;2023-08-06T06:21:15;94562.00;;;19.70;61.57
79577;BME280;69045;48.136;11.386;2023-08-06T06:23:43;94561.56;;;19.82;59.99
79577;BME280;69045;48.136;11.386;2023-08-06T06:26:12;94562.56;;;20.00;60.21
79577;BME280;69045;48.136;11.386;2023-08-06T06:28:40;94558.94;;;20.09;59.36
79577;BME280;69045;48.136;11.386;2023-08-06T06:31:10;94560.22;;;20.12;59.50
79577;BME280;69045;48.136;11.386;2023-08-06T06:33:38;94557.84;;;20.24;58.58
79577;BME280;69045;48.136;11.386;2023-08-06T06:36:05;94567.69;;;20.37;58.35
79577;BME280;69045;48.136;11.386;2023-08-06T06:38:34;94567.69;;;20.65;57.80
79577;BME280;69045;48.136;11.386;2023-08-06T06:41:02;94562.03;;;20.94;57.52
79577;BME280;69045;48.136;11.386;2023-08-06T06:43:30;94558.41;;;21.12;56.24
79577;BME280;69045;48.136;11.386;2023-08-06T06:45:59;94563.03;;;21.20;55.72
79577;BME280;69045;48.136;11.386;2023-08-06T06:48:32;94556.88;;;21.34;53.72
79577;BME280;69045;48.136;11.386;2023-08-06T06:51:00;94574.75;;;21.19;54.52
79577;BME280;69045;48.136;11.386;2023-08-06T06:53:29;94565.47;;;21.53;54.75
79577;BME280;69045;48.136;11.386;2023-08-06T06:56:02;94574.78;;;21.87;53.77
79577;BME280;69045;48.136;11.386;2023-08-06T06:58:30;94566.50;;;22.19;52.36
79577;BME280;69045;48.136;11.386;2023-08-06T07:00:58;94562.16;;;22.41;50.55
79577;BME280;69045;48.136;11.386;2023-08-06T07:03:26;94579.91;;;22.37;50.83
79577;BME280;69045;48.136;11.386;2023-08-06T07:05:58;94575.97;;;22.34;50.97
79577;BME280;69045;48.136;11.386;2023-08-06T07:08:26;94575.13;;;21.94;50.39
79577;BME280;69045;48.136;11.386;2023-08-06T07:11:00;94574.03;;;21.64;51.36
79577;BME280;69045;48.136;11.386;2023-08-06T07:13:29;94573.47;;;21.53;52.18
79577;BME280;69045;48.136;11.386;2023-08-06T07:15:57;94577.41;;;21.33;53.18
79577;BME280;69045;48.136;11.386;2023-08-06T07:18:25;94570.22;;;21.20;53.69
79577;BME280;69045;48.136;11.386;2023-08-06T07:20:54;94570.63;;;21.13;54.38
79577;BME280;69045;48.136;11.386;2023-08-06T07:23:25;94564.59;;;20.85;55.00
79577;BME280;69045;48.136;11.386;2023-08-06T07:25:53;94566.69;;;20.88;55.33
79577;BME280;69045;48.136;11.386;2023-08-06T07:28:22;94560.56;;;20.88;55.01
79577;BME280;69045;48.136;11.386;2023-08-06T07:30:50;94564.25;;;20.64;55.38
79577;BME280;69045;48.136;11.386;2023-08-06T07:33:18;94561.59;;;20.64;56.32
79577;BME280;69045;48.136;11.386;2023-08-06T07:35:46;94564.06;;;20.61;56.08
79577;BME280;69045;48.136;11.386;2023-08-06T07:38:14;94563.38;;;20.55;56.16
79577;BME280;69045;48.136;11.386;2023-08-06T07:40:45;94562.91;;;20.53;56.56
79577;BME280;69045;48.136;11.386;2023-08-06T07:43:13;94565.94;;;20.33;56.51
79577;BME280;69045;48.136;11.386;2023-08-06T07:45:41;94564.16;;;20.14;57.59
79577;BME280;69045;48.136;11.386;2023-08-06T07:48:09;94561.28;;;20.38;57.10
79577;BME280;69045;48.136;11.386;2023-08-06T07:50:37;94560.91;;;20.45;57.16
79577;BME280;69045;48.136;11.386;2023-08-06T07:53:05;94546.47;;;20.87;55.69
79577;BME280;69045;48.136;11.386;2023-08-06T07:55:33;94547.13;;;21.51;54.95
79577;BME280;69045;48.136;11.386;2023-08-06T07:58:02;94554.72;;;22.20;53.88
79577;BME280;69045;48.136;11.386;2023-08-06T08:00:30;94551.06;;;22.56;51.22
79577;BME280;69045;48.136;11.386;2023-08-06T08:02:59;94544.38;;;23.02;50.15
79577;BME280;69045;48.136;11.386;2023-08-06T08:05:27;94541.19;;;22.82;49.42
79577;BME280;69045;48.136;11.386;2023-08-06T08:07:56;94532.16;;;23.18;49.03
79577;BME280;69045;48.136;11.386;2023-08-06T08:10:24;94553.19;;;23.37;49.22
79577;BME280;69045;48.136;11.386;2023-08-06T08:12:52;94542.03;;;23.52;48.51
79577;BME280;69045;48.136;11.386;2023-08-06T08:15:22;94545.16;;;23.54;47.57
79577;BME280;69045;48.136;11.386;2023-08-06T08:17:50;94542.19;;;23.38;48.46
79577;BME280;69045;48.136;11.386;2023-08-06T08:20:18;94525.69;;;23.45;47.33
79577;BME280;69045;48.136;11.386;2023-08-06T08:22:46;94530.41;;;23.31;47.15
79577;BME280;69045;48.136;11.386;2023-08-06T08:25:16;94530.56;;;23.34;47.30
79577;BME280;69045;48.136;11.386;2023-08-06T08:27:44;94532.59;;;23.29;46.60
79577;BME280;69045;48.136;11.386;2023-08-06T08:30:12;94519.59;;;23.10;47.82
79577;BME280;69045;48.136;11.386;2023-08-06T08:32:42;94530.88;;;22.98;48.19
79577;BME280;69045;48.136;11.386;2023-08-06T08:35:10;94531.50;;;22.95;47.07
79577;BME280;69045;48.136;11.386;2023-08-06T08:37:39;94544.66;;;22.74;48.11
79577;BME280;69045;48.136;11.386;2023-08-06T08:40:08;94545.56;;;22.52;47.59
79577;BME280;69045;48.136;11.386;2023-08-06T08:42:37;94539.09;;;22.36;48.50
79577;BME280;69045;48.136;11.386;2023-08-06T08:45:11;94545.94;;;22.28;48.83
79577;BME280;69045;48.136;11.386;2023-08-06T08:47:43;94553.94;;;22.28;48.56
79577;BME280;69045;48.136;11.386;2023-08-06T08:50:11;94549.13;;;22.30;48.72
79577;BME280;69045;48.136;11.386;2023-08-06T08:52:43;94555.66;;;22.16;48.18
79577;BME280;69045;48.136;11.386;2023-08-06T08:55:14;94562.69;;;22.12;49.05
79577;BME280;69045;48.136;11.386;2023-08-06T08:57:43;94560.72;;;21.95;49.24
79577;BME280;69045;48.136;11.386;2023-08-06T09:00:12;94561.16;;;21.88;48.75
79577;BME280;69045;48.136;11.386;2023-08-06T09:02:44;94562.25;;;21.65;50.01
79577;BME280;69045;48.136;11.386;2023-08-06T09:05:13;94567.97;;;21.49;50.62
79577;BME280;69045;48.136;11.386;2023-08-06T09:07:47;94559.31;;;21.44;50.87
79577;BME280;69045;48.136;11.386;2023-08-06T09:10:16;94566.94;;;21.37;50.97
79577;BME280;69045;48.136;11.386;2023-08-06T09:12:48;94570.34;;;21.29;50.85
79577;BME280;69045;48.136;11.386;2023-08-06T09:15:20;94570.06;;;21.16;51.14
79577;BME280;69045;48.136;11.386;2023-08-06T09:17:51;94563.75;;;21.12;50.85
79577;BME280;69045;48.136;11.386;2023-08-06T09:20:20;94555.78;;;20.98;50.56
79577;BME280;69045;48.136;11.386;2023-08-06T09:22:48;94559.06;;;20.95;51.29
79577;BME280;69045;48.136;11.386;2023-08-06T09:25:21;94567.84;;;20.96;52.12
79577;BME280;69045;48.136;11.386;2023-08-06T09:27:51;94553.50;;;21.06;52.28
79577;BME280;69045;48.136;11.386;2023-08-06T09:30:29;94556.22;;;21.28;51.76
79577;BME280;69045;48.136;11.386;2023-08-06T09:33:00;94571.06;;;21.43;51.73
79577;BME280;69045;48.136;11.386;2023-08-06T09:35:29;94563.13;;;21.51;50.82
79577;BME280;69045;48.136;11.386;2023-08-06T09:38:05;94568.66;;;21.55;49.97
79577;BME280;69045;48.136;11.386;2023-08-06T09:40:36;94563.44;;;21.50;49.72
79577;BME280;69045;48.136;11.386;2023-08-06T09:43:05;94560.56;;;21.46;50.70
79577;BME280;69045;48.136;11.386;2023-08-06T09:45:34;94568.13;;;21.53;50.74
79577;BME280;69045;48.136;11.386;2023-08-06T09:48:05;94566.19;;;21.67;49.91
79577;BME280;69045;48.136;11.386;2023-08-06T09:50:35;94566.56;;;21.74;49.40
79577;BME280;69045;48.136;11.386;2023-08-06T09:53:05;94570.72;;;21.67;49.21
79577;BME280;69045;48.136;11.386;2023-08-06T09:55:33;94571.16;;;21.60;49.66
79577;BME280;69045;48.136;11.386;2023-08-06T09:58:02;94590.63;;;21.61;49.90
79577;BME280;69045;48.136;11.386;2023-08-06T10:00:30;94575.91;;;21.63;49.28
79577;BME280;69045;48.136;11.386;2023-08-06T10:03:06;94564.69;;;21.52;50.30
79577;BME280;69045;48.136;11.386;2023-08-06T10:05:36;94577.97;;;21.44;49.70
79577;BME280;69045;48.136;11.386;2023-08-06T10:08:07;94573.78;;;21.51;49.91
79577;BME280;69045;48.136;11.386;2023-08-06T10:10:35;94571.66;;;21.62;49.41
79577;BME280;69045;48.136;11.386;2023-08-06T10:13:06;94572.72;;;21.84;48.72
79577;BME280;69045;48.136;11.386;2023-08-06T10:15:36;94574.84;;;21.95;48.80
79577;BME280;69045;48.136;11.386;2023-08-06T10:18:07;94568.41;;;22.27;48.42
79577;BME280;69045;48.136;11.386;2023-08-06T10:20:36;94562.00;;;22.37;47.75
79577;BME280;69045;48.136;11.386;2023-08-06T10:23:05;94570.59;;;22.25;47.48
79577;BME280;69045;48.136;11.386;2023-08-06T10:25:35;94583.34;;;22.06;48.46
79577;BME280;69045;48.136;11.386;2023-08-06T10:28:09;94590.53;;;21.97;48.82
79577;BME280;69045;48.136;11.386;2023-08-06T10:30:44;94588.72;;;21.84;49.28
79577;BME280;69045;48.136;11.386;2023-08-06T10:33:14;94592.50;;;21.83;48.74
79577;BME280;69045;48.136;11.386;2023-08-06T10:35:44;94597.41;;;21.67;48.40
79577;BME280;69045;48.136;11.386;2023-08-06T10:38:18;94595.94;;;21.61;49.57
79577;BME280;69045;48.136;11.386;2023-08-06T10:41:01;94587.59;;;21.53;49.78
79577;BME280;69045;48.136;11.386;2023-08-06T10:43:32;94579.25;;;21.69;48.76
79577;BME280;69045;48.136;11.386;2023-08-06T10:46:03;94583.03;;;21.76;49.58
79577;BME280;69045;48.136;11.386;2023-08-06T10:48:37;94577.53;;;22.04;48.75
79577;BME280;69045;48.136;11.386;2023-08-06T10:51:09;94581.13;;;22.22;47.77
79577;BME280;69045;48.136;11.386;2023-08-06T10:53:42;94579.75;;;22.42;47.26
79577;BME280;69045;48.136;11.386;2023-08-06T10:56:14;94578.56;;;22.56;47.10
79577;BME280;69045;48.136;11.386;2023-08-06T10:58:43;94579.81;;;22.68;47.28
79577;BME280;69045;48.136;11.386;2023-08-06T11:01:12;94576.22;;;22.72;46.15
79577;BME280;69045;48.136;11.386;2023-08-06T11:03:42;94577.47;;;22.66;47.45
79577;BME280;69045;48.136;11.386;2023-08-06T11:06:16;94577.94;;;22.59;46.42
79577;BME280;69045;48.136;11.386;2023-08-06T11:08:47;94584.47;;;22.36;47.30
79577;BME280;69045;48.136;11.386;2023-08-06T11:11:17;94598.25;;;22.29;47.81
79577;BME280;69045;48.136;11.386;2023-08-06T11:13:47;94583.72;;;22.13;48.23
79577;BME280;69045;48.136;11.386;2023-08-06T11:16:17;94606.81;;;22.18;48.14
79577;BME280;69045;48.136;11.386;2023-08-06T11:18:47;94593.50;;;22.26;47.87
79577;BME280;69045;48.136;11.386;2023-08-06T11:21:18;94603.28;;;22.31;47.95
79577;BME280;69045;48.136;11.386;2023-08-06T11:23:47;94606.09;;;22.34;48.30
79577;BME280;69045;48.136;11.386;2023-08-06T11:26:18;94605.59;;;22.24;48.92
79577;BME280;69045;48.136;11.386;2023-08-06T11:28:47;94600.03;;;22.12;49.13
79577;BME280;69045;48.136;11.386;2023-08-06T11:31:19;94597.75;;;21.96;49.30
79577;BME280;69045;48.136;11.386;2023-08-06T11:33:49;94597.25;;;21.94;49.29
79577;BME280;69045;48.136;11.386;2023-08-06T11:36:28;94593.53;;;22.04;48.50
79577;BME280;69045;48.136;11.386;2023-08-06T11:38:57;94612.47;;;22.16;47.85
79577;BME280;69045;48.136;11.386;2023-08-06T11:41:27;94617.63;;;22.13;48.70
79577;BME280;69045;48.136;11.386;2023-08-06T11:43:55;94608.09;;;22.20;48.85
79577;BME280;69045;48.136;11.386;2023-08-06T11:46:24;94606.06;;;22.26;48.04
79577;BME280;69045;48.136;11.386;2023-08-06T11:48:55;94618.72;;;22.12;48.86
79577;BME280;69045;48.136;11.386;2023-08-06T11:51:23;94621.47;;;22.06;49.22
79577;BME280;69045;48.136;11.386;2023-08-06T11:53:55;94624.47;;;22.05;49.32
79577;BME280;69045;48.136;11.386;2023-08-06T11:56:24;94626.31;;;21.96;49.33
79577;BME280;69045;48.136;11.386;2023-08-06T11:58:52;94626.31;;;21.96;49.66
79577;BME280;69045;48.136;11.386;2023-08-06T12:01:22;94631.81;;;21.99;49.74
79577;BME280;69045;48.136;11.386;2023-08-06T12:03:50;94623.56;;;21.87;50.52
79577;BME280;69045;48.136;11.386;2023-08-06T12:06:19;94619.00;;;21.88;50.03
79577;BME280;69045;48.136;11.386;2023-08-06T12:08:48;94627.00;;;21.88;49.98
79577;BME280;69045;48.136;11.386;2023-08-06T12:11:20;94623.56;;;21.87;50.14
79577;BME280;69045;48.136;11.386;2023-08-06T12:13:50;94618.38;;;21.82;49.85
79577;BME280;69045;48.136;11.386;2023-08-06T12:16:18;94624.97;;;21.85;50.15
79577;BME280;69045;48.136;11.386;2023-08-06T12:18:48;94622.34;;;21.93;49.34
79577;BME280;69045;48.136;11.386;2023-08-06T12:21:17;94619.25;;;22.00;49.52
79577;BME280;69045;48.136;11.386;2023-08-06T12:23:46;94606.88;;;22.04;48.69
79577;BME280;69045;48.136;11.386;2023-08-06T12:26:14;94613.44;;;21.98;49.46
79577;BME280;69045;48.136;11.386;2023-08-06T12:28:42;94623.63;;;21.96;48.72
79577;BME280;69045;48.136;11.386;2023-08-06T12:31:11;94621.22;;;21.86;49.25
79577;BME280;69045;48.136;11.386;2023-08-06T12:33:39;94629.28;;;21.72;49.84
79577;BME280;69045;48.136;11.386;2023-08-06T12:36:08;94624.84;;;21.67;50.02
79577;BME280;69045;48.136;11.386;2023-08-06T12:38:36;94638.84;;;21.50;51.30
79577;BME280;69045;48.136;11.386;2023-08-06T12:41:05;94641.13;;;21.43;52.29
79577;BME280;69045;48.136;11.386;2023-08-06T12:43:33;94636.91;;;21.42;52.36
79577;BME280;69045;48.136;11.386;2023-08-06T12:46:01;94645.69;;;21.43;51.59
79577;BME280;69045;48.136;11.386;2023-08-06T12:48:30;94650.28;;;21.51;51.25
79577;BME280;69045;48.136;11.386;2023-08-06T12:50:58;94659.75;;;21.57;51.28
79577;BME280;69045;48.136;11.386;2023-08-06T12:53:26;94646.41;;;21.57;51.23
79577;BME280;69045;48.136;11.386;2023-08-06T12:55:54;94647.56;;;21.65;51.00
79577;BME280;69045;48.136;11.386;2023-08-06T12:58:24;94656.66;;;21.64;50.95
79577;BME280;69045;48.136;11.386;2023-08-06T13:00:52;94652.31;;;21.68;51.25
79577;BME280;69045;48.136;11.386;2023-08-06T13:03:21;94657.81;;;21.71;51.33
79577;BME280;69045;48.136;11.386;2023-08-06T13:05:50;94674.50;;;21.77;51.44